Time;durP1;ratioP1;P1;durP2;ratioP2;P2;SDS_P1;SDS_P2;PMS_P1;PMS_P2;Temp;Humidity;BMP_temperature;BMP_pressure;BME280_temperature;BME280_humidity;BME280_pressure;Samples;Min_cycle;Max_cycle;Signal;HPM_P1;HPM_P2
2022/07/14 08:08:46;;;;;;;2.97;0.60;;;20.10;99.90;;;;;;4996340;28;20134;-85
2022/07/14 08:11:33;;;;;;;2.97;0.82;;;20.20;99.90;;;;;;4980515;28;20050;-84
2022/07/14 08:17:23;;;;;;;5.20;0.60;;;20.30;99.90;;;;;;4992045;28;20550;-84
2022/07/14 08:20:10;;;;;;;3.10;0.68;;;20.20;99.90;;;;;;4973388;28;20414;-85
2022/07/14 08:22:57;;;;;;;3.90;0.60;;;20.20;99.90;;;;;;4973819;28;20560;-85
2022/07/14 08:25:44;;;;;;;2.50;0.40;;;20.10;99.90;;;;;;4991029;28;20495;-84
2022/07/14 08:28:30;;;;;;;3.40;0.60;;;20.10;99.90;;;;;;4960467;28;20061;-84
2022/07/14 08:31:16;;;;;;;4.97;0.47;;;20.30;99.90;;;;;;4980201;28;20398;-85
2022/07/14 08:34:05;;;;;;;1.42;0.32;;;20.40;99.90;;;;;;4980810;28;20058;-83
2022/07/14 08:36:52;;;;;;;2.20;0.50;;;20.70;99.90;;;;;;4961593;28;20498;-86
2022/07/14 08:39:38;;;;;;;4.57;0.50;;;20.70;99.90;;;;;;4963851;28;20066;-84
2022/07/14 08:42:29;;;;;;;3.88;0.60;;;20.80;99.90;;;;;;4994118;28;20407;-84
2022/07/14 08:45:17;;;;;;;3.88;0.75;;;20.80;99.90;;;;;;4961217;28;20146;-84
2022/07/14 08:48:04;;;;;;;3.85;0.73;;;20.70;99.90;;;;;;4997229;28;20077;-84
2022/07/14 08:50:50;;;;;;;2.42;0.63;;;20.70;99.90;;;;;;5008658;28;20046;-84
2022/07/14 08:53:37;;;;;;;2.72;0.52;;;20.90;99.90;;;;;;4998285;28;20047;-85
2022/07/14 08:56:25;;;;;;;4.25;0.80;;;20.90;99.90;;;;;;4998223;28;20419;-85
2022/07/14 08:59:14;;;;;;;2.90;0.50;;;20.90;99.90;;;;;;4998593;28;20051;-84
2022/07/14 09:02:00;;;;;;;2.63;0.38;;;20.80;99.90;;;;;;4984012;28;20502;-84
2022/07/14 09:04:46;;;;;;;2.42;0.65;;;20.90;99.90;;;;;;4981287;28;20145;-84
2022/07/14 09:07:37;;;;;;;7.30;1.00;;;20.80;99.90;;;;;;4999621;28;20148;-83
2022/07/14 09:10:25;;;;;;;2.58;0.52;;;21.00;99.90;;;;;;5000351;28;20388;-85
2022/07/14 09:13:15;;;;;;;3.45;0.52;;;20.90;99.90;;;;;;4997660;28;20447;-84
2022/07/14 09:16:22;;;;;;;5.57;0.85;;;21.00;99.90;;;;;;4996300;28;20061;-85
2022/07/14 09:19:11;;;;;;;1.52;0.50;;;21.00;99.90;;;;;;4996061;28;20486;-84
2022/07/14 09:22:01;;;;;;;5.15;0.73;;;20.90;99.90;;;;;;4979548;28;20089;-85
2022/07/14 09:24:53;;;;;;;4.88;0.88;;;21.20;99.90;;;;;;4984117;28;20054;-84
2022/07/14 09:27:40;;;;;;;4.97;0.70;;;21.50;99.90;;;;;;5004275;28;20042;-84
2022/07/14 09:30:26;;;;;;;2.00;0.50;;;21.80;99.10;;;;;;4997654;28;20197;-84
2022/07/14 09:33:17;;;;;;;5.07;0.50;;;21.90;98.70;;;;;;4994504;28;20046;-84
2022/07/14 09:36:03;;;;;;;2.58;0.50;;;22.10;98.30;;;;;;4996148;28;20105;-84
2022/07/14 09:38:50;;;;;;;4.30;0.57;;;21.90;98.30;;;;;;4995713;28;20108;-85
2022/07/14 09:41:49;;;;;;;2.78;0.40;;;21.70;98.50;;;;;;4996232;28;20451;-84
2022/07/14 09:44:35;;;;;;;4.10;0.50;;;21.80;98.20;;;;;;4982348;28;20097;-84
2022/07/14 09:47:21;;;;;;;5.38;0.70;;;21.80;98.30;;;;;;4978101;28;20054;-86
2022/07/14 09:50:08;;;;;;;3.33;0.40;;;21.80;98.90;;;;;;5000363;28;20136;-83
2022/07/14 09:52:54;;;;;;;4.28;0.60;;;21.80;99.10;;;;;;4968113;28;20137;-85
2022/07/14 09:55:59;;;;;;;3.30;0.70;;;21.80;98.80;;;;;;4977922;28;20388;-84
2022/07/14 09:58:54;;;;;;;3.08;0.70;;;21.90;97.60;;;;;;4976576;28;20042;-83
2022/07/14 10:01:41;;;;;;;3.10;0.90;;;22.00;98.70;;;;;;4979736;28;20059;-83
2022/07/14 10:04:27;;;;;;;3.10;0.50;;;22.30;99.10;;;;;;5002266;28;20146;-85
2022/07/14 10:07:15;;;;;;;3.83;0.65;;;22.40;98.70;;;;;;4993064;28;20050;-85
2022/07/14 10:10:10;;;;;;;4.07;0.57;;;22.40;98.20;;;;;;4963958;28;20053;-83
2022/07/14 10:12:57;;;;;;;2.55;0.40;;;22.40;98.00;;;;;;4993401;28;20081;-82
2022/07/14 10:15:44;;;;;;;2.88;0.63;;;22.50;97.80;;;;;;4992200;28;20491;-82
2022/07/14 10:18:32;;;;;;;4.50;0.70;;;22.40;97.40;;;;;;4974909;28;20049;-83
2022/07/14 10:21:18;;;;;;;5.50;0.70;;;22.20;97.90;;;;;;4976491;28;20048;-85
2022/07/14 10:24:05;;;;;;;6.28;0.70;;;22.20;97.70;;;;;;5002479;28;20081;-84
2022/07/14 10:26:53;;;;;;;3.47;0.40;;;22.00;97.80;;;;;;4983835;28;20105;-84
2022/07/14 10:29:40;;;;;;;4.80;0.85;;;21.80;98.40;;;;;;4976387;28;20050;-82
2022/07/14 10:32:44;;;;;;;4.53;0.80;;;21.70;98.30;;;;;;4994006;28;20149;-84
2022/07/14 10:35:58;;;;;;;5.80;0.82;;;21.60;98.60;;;;;;4992813;28;20402;-82
2022/07/14 10:39:12;;;;;;;2.70;0.60;;;21.40;98.40;;;;;;4963161;28;20552;-82
2022/07/14 10:42:05;;;;;;;2.92;0.47;;;21.30;99.20;;;;;;4993965;28;20054;-83
2022/07/14 10:44:52;;;;;;;6.65;0.63;;;21.10;99.00;;;;;;4994049;28;20111;-84
2022/07/14 10:47:48;;;;;;;4.13;0.60;;;21.10;99.30;;;;;;4979537;28;20061;-82
2022/07/14 10:50:34;;;;;;;4.97;0.63;;;21.20;99.10;;;;;;4977823;28;20072;-84
2022/07/14 10:53:20;;;;;;;2.75;0.57;;;21.00;99.30;;;;;;4977160;28;20116;-84
2022/07/14 10:56:06;;;;;;;3.33;0.70;;;21.20;99.20;;;;;;4978110;28;20055;-84
2022/07/14 10:59:29;;;;;;;4.25;0.70;;;21.10;99.00;;;;;;4976341;28;20509;-83
2022/07/14 11:02:15;;;;;;;8.02;1.45;;;21.30;98.40;;;;;;4977383;28;20089;-83
2022/07/14 11:05:10;;;;;;;3.65;0.80;;;21.60;98.20;;;;;;4976819;28;20088;-83
2022/07/14 11:08:14;;;;;;;6.90;1.20;;;22.00;97.30;;;;;;4984547;28;20050;-85
2022/07/14 11:11:01;;;;;;;5.40;1.35;;;22.00;97.70;;;;;;4975524;28;20051;-85
2022/07/14 11:14:00;;;;;;;8.18;1.25;;;22.10;97.50;;;;;;4992024;28;20089;-83
2022/07/14 11:16:47;;;;;;;10.82;1.50;;;22.30;96.00;;;;;;4979906;28;20118;-83
2022/07/14 11:19:37;;;;;;;7.28;1.35;;;22.40;95.80;;;;;;4976510;28;20050;-83
2022/07/14 11:22:25;;;;;;;4.72;0.85;;;22.60;95.70;;;;;;4997160;28;20050;-84
2022/07/14 11:25:26;;;;;;;2.97;0.90;;;22.60;95.20;;;;;;4977061;28;20050;-84
2022/07/14 11:28:31;;;;;;;4.47;0.82;;;22.70;95.10;;;;;;4975453;28;20042;-84
2022/07/14 11:31:21;;;;;;;7.28;1.00;;;22.60;95.20;;;;;;4976255;28;20553;-85
2022/07/14 11:37:31;;;;;;;3.88;1.00;;;22.40;96.20;;;;;;4992289;28;20050;-84
2022/07/14 11:40:40;;;;;;;4.65;0.82;;;22.40;96.00;;;;;;4994434;28;20229;-85
2022/07/14 11:43:29;;;;;;;4.10;0.90;;;22.60;95.30;;;;;;4999134;28;20046;-83
2022/07/14 11:46:17;;;;;;;4.28;0.60;;;22.90;95.20;;;;;;4981733;28;20050;-84
2022/07/14 11:49:04;;;;;;;4.15;0.90;;;23.40;94.90;;;;;;4975434;28;20452;-83
2022/07/14 11:51:53;;;;;;;4.93;0.90;;;23.80;94.50;;;;;;4991605;28;20047;-83
2022/07/14 11:54:42;;;;;;;5.13;1.05;;;24.20;94.10;;;;;;4990946;28;20467;-83
2022/07/14 11:57:29;;;;;;;3.17;0.60;;;24.10;93.90;;;;;;4991225;28;20521;-85
2022/07/14 12:00:15;;;;;;;4.68;0.98;;;23.90;93.40;;;;;;4992129;28;20038;-85
2022/07/14 12:03:01;;;;;;;3.05;0.47;;;24.10;93.40;;;;;;4975357;28;20101;-85
2022/07/14 12:05:56;;;;;;;5.07;0.77;;;24.60;93.50;;;;;;4982943;28;20062;-85
2022/07/14 12:08:43;;;;;;;;;;;25.50;93.30;;;;;;5002316;28;20109;-86
2022/07/14 12:11:29;;;;;;;3.45;0.70;;;25.30;91.80;;;;;;4984181;28;19929;-85
2022/07/14 12:14:16;;;;;;;3.35;0.63;;;25.80;91.90;;;;;;4976406;28;20050;-84
2022/07/14 12:17:04;;;;;;;5.13;0.90;;;25.60;90.60;;;;;;4995472;28;20395;-85
2022/07/14 12:19:50;;;;;;;7.05;0.98;;;25.20;90.70;;;;;;4986051;28;20070;-84
2022/07/14 12:22:44;;;;;;;5.07;1.13;;;25.10;91.00;;;;;;4979368;28;20138;-84
2022/07/14 12:25:34;;;;;;;6.10;0.80;;;25.20;90.60;;;;;;4978697;28;20050;-84
2022/07/14 12:28:21;;;;;;;6.30;0.70;;;25.40;91.00;;;;;;4995548;28;20285;-84
2022/07/14 12:31:07;;;;;;;5.20;0.60;;;25.70;90.90;;;;;;4978292;28;20063;-85
2022/07/14 12:34:00;;;;;;;4.63;1.05;;;26.00;90.30;;;;;;4995886;28;20046;-83
2022/07/14 12:36:48;;;;;;;1.75;0.50;;;26.20;88.30;;;;;;4981306;28;20450;-83
2022/07/14 12:39:34;;;;;;;2.95;0.60;;;26.60;88.60;;;;;;4985092;28;20104;-84
2022/07/14 12:42:20;;;;;;;5.45;0.75;;;26.30;87.60;;;;;;4984070;28;20133;-83
2022/07/14 12:45:07;;;;;;;5.82;0.95;;;26.10;84.20;;;;;;4981136;28;20045;-84
2022/07/14 12:48:01;;;;;;;4.28;1.08;;;25.80;83.70;;;;;;4996970;28;20050;-84
2022/07/14 12:50:47;;;;;;;6.10;1.20;;;26.10;84.60;;;;;;4972609;28;20058;-84
2022/07/14 12:53:33;;;;;;;4.32;0.80;;;26.40;85.20;;;;;;4999586;28;20050;-84
2022/07/14 12:56:19;;;;;;;5.20;1.23;;;26.50;86.20;;;;;;4997267;28;20149;-85
2022/07/14 12:59:08;;;;;;;7.25;0.88;;;26.50;86.50;;;;;;4998913;28;20053;-82
2022/07/14 13:02:00;;;;;;;6.45;1.65;;;26.70;85.20;;;;;;4980727;28;20050;-83
2022/07/14 13:04:49;;;;;;;9.68;2.03;;;26.80;85.40;;;;;;4997864;28;20046;-80
2022/07/14 13:07:39;;;;;;;4.93;0.95;;;27.30;83.30;;;;;;4997763;28;20054;-81
2022/07/14 13:10:26;;;;;;;6.05;0.70;;;27.40;79.50;;;;;;4981661;28;20510;-84
2022/07/14 13:13:30;;;;;;;4.22;0.70;;;27.60;79.60;;;;;;4968484;28;20057;-83
2022/07/14 13:16:25;;;;;;;3.85;0.73;;;27.70;75.60;;;;;;4984976;28;20082;-82
2022/07/14 13:19:20;;;;;;;3.38;0.60;;;27.70;75.50;;;;;;4997826;28;20054;-82
2022/07/14 13:22:07;;;;;;;5.22;0.98;;;27.70;72.10;;;;;;4979566;28;20057;-82
2022/07/14 13:24:55;;;;;;;3.40;0.65;;;27.70;74.90;;;;;;5004465;28;20116;-84
2022/07/14 13:27:41;;;;;;;6.63;1.00;;;28.00;75.20;;;;;;5004437;28;20038;-83
2022/07/14 13:30:27;;;;;;;3.53;0.50;;;27.90;74.40;;;;;;4999966;28;20157;-81
2022/07/14 13:33:13;;;;;;;4.07;0.85;;;27.90;76.30;;;;;;4997067;28;20049;-86
2022/07/14 13:36:02;;;;;;;5.47;0.82;;;27.90;74.50;;;;;;4997599;28;20050;-82
2022/07/14 13:38:48;;;;;;;3.38;0.95;;;27.60;74.00;;;;;;4977401;28;20046;-81
2022/07/14 13:41:36;;;;;;;7.45;0.80;;;27.80;73.70;;;;;;4983508;28;20038;-87
2022/07/14 13:44:23;;;;;;;2.42;0.60;;;28.10;72.90;;;;;;4980196;28;20134;-85
2022/07/14 13:47:09;;;;;;;2.65;0.60;;;28.60;71.30;;;;;;4976038;28;20062;-86
2022/07/14 13:53:00;;;;;;;1.88;0.60;;;28.90;67.30;;;;;;4977596;28;20081;-80
2022/07/14 13:55:46;;;;;;;5.72;1.02;;;29.00;65.80;;;;;;4994560;28;20058;-80
2022/07/14 13:58:33;;;;;;;2.05;0.57;;;28.30;64.90;;;;;;4993251;28;20054;-79
2022/07/14 14:01:19;;;;;;;4.55;0.60;;;28.60;67.10;;;;;;4976075;28;20057;-84
2022/07/14 14:04:05;;;;;;;3.88;0.75;;;28.50;65.00;;;;;;4996695;28;20388;-82
2022/07/14 14:06:52;;;;;;;3.10;0.70;;;28.30;64.80;;;;;;4974839;28;20042;-79
2022/07/14 14:09:38;;;;;;;6.15;0.63;;;28.10;64.80;;;;;;4989339;28;20522;-81
2022/07/14 14:12:24;;;;;;;4.28;0.80;;;28.50;63.80;;;;;;4973221;28;20046;-78
2022/07/14 14:15:10;;;;;;;6.65;0.70;;;29.10;63.20;;;;;;4994841;28;20101;-83
2022/07/14 14:17:57;;;;;;;3.45;0.73;;;29.40;58.90;;;;;;4992206;28;20140;-77
2022/07/14 14:20:44;;;;;;;6.57;1.05;;;29.00;57.70;;;;;;4993192;28;20038;-77
2022/07/14 14:23:30;;;;;;;7.15;1.00;;;29.00;58.40;;;;;;4988997;28;20050;-80
2022/07/14 14:26:17;;;;;;;5.30;0.77;;;29.00;58.60;;;;;;4993067;28;20049;-83
2022/07/14 14:29:03;;;;;;;13.23;1.08;;;27.80;62.00;;;;;;4975640;28;20421;-76
2022/07/14 14:31:49;;;;;;;5.22;0.90;;;26.60;67.80;;;;;;4992967;28;20053;-81
2022/07/14 14:34:36;;;;;;;5.57;1.08;;;26.00;70.00;;;;;;4992674;28;20050;-82
2022/07/14 14:37:22;;;;;;;6.55;1.08;;;26.00;72.60;;;;;;4972832;28;20043;-79
2022/07/14 14:40:08;;;;;;;5.03;0.80;;;25.90;72.80;;;;;;4992340;28;20054;-75
2022/07/14 14:42:55;;;;;;;5.00;1.15;;;25.70;75.20;;;;;;4976995;28;20054;-81
2022/07/14 14:45:42;;;;;;;10.70;1.90;;;25.50;79.10;;;;;;4975589;28;20491;-84
2022/07/14 14:48:28;;;;;;;12.77;2.28;;;25.10;84.70;;;;;;4995949;28;20054;-84
2022/07/14 14:51:15;;;;;;;12.60;2.30;;;24.30;93.30;;;;;;4963592;28;20058;-76
2022/07/14 14:54:01;;;;;;;15.55;2.92;;;23.50;96.30;;;;;;4978200;28;20054;-81
2022/07/14 14:56:50;;;;;;;11.95;3.20;;;22.50;99.10;;;;;;4992783;28;20088;-81
2022/07/14 14:59:37;;;;;;;14.60;3.83;;;22.10;99.90;;;;;;4975350;28;20384;-81
2022/07/14 15:02:27;;;;;;;13.45;2.30;;;22.40;99.90;;;;;;4978672;28;20085;-79
2022/07/14 15:05:14;;;;;;;11.52;2.75;;;22.70;99.90;;;;;;4992462;28;20046;-77
2022/07/14 15:08:01;;;;;;;12.55;2.50;;;22.40;99.90;;;;;;4989803;28;20050;-78
2022/07/14 15:10:47;;;;;;;11.95;2.22;;;22.00;99.90;;;;;;4983330;28;20043;-78
2022/07/14 15:13:33;;;;;;;7.70;2.00;;;21.90;99.90;;;;;;4990939;28;20068;-80
2022/07/14 15:16:19;;;;;;;8.25;2.08;;;22.40;99.90;;;;;;4977363;28;20039;-79
2022/07/14 15:19:05;;;;;;;9.88;2.10;;;22.80;99.90;;;;;;4977066;28;20045;-80
2022/07/14 15:21:54;;;;;;;6.00;1.60;;;23.10;99.90;;;;;;4990579;28;20054;-84
2022/07/14 15:24:45;;;;;;;8.07;1.58;;;23.30;99.90;;;;;;4965337;28;20080;-81
2022/07/14 15:27:31;;;;;;;6.57;1.48;;;23.30;99.90;;;;;;4994040;28;20707;-81
2022/07/14 15:30:18;;;;;;;7.00;1.52;;;22.90;99.90;;;;;;4990681;28;20132;-81
2022/07/14 15:33:04;;;;;;;9.45;1.85;;;22.80;99.30;;;;;;4974786;28;20050;-79
2022/07/14 15:35:51;;;;;;;10.65;1.67;;;22.60;99.90;;;;;;4990581;28;20081;-82
2022/07/14 15:41:14;;;;;;;14.13;2.67;;;22.60;99.90;;;;;;4978207;28;20131;-82
2022/07/14 15:41:43;;;;;;;11.07;2.00;;;23.20;99.90;;;;;;4986054;28;20046;-76
2022/07/14 15:44:29;;;;;;;8.80;1.90;;;23.40;99.70;;;;;;4976373;28;20062;-84
2022/07/14 15:47:15;;;;;;;10.23;1.88;;;23.20;98.60;;;;;;4954544;28;20065;-82
2022/07/14 15:50:01;;;;;;;9.27;2.47;;;23.00;98.80;;;;;;4976414;28;20055;-82
2022/07/14 15:52:48;;;;;;;10.32;2.63;;;22.40;99.30;;;;;;4973791;28;20054;-80
2022/07/14 15:55:34;;;;;;;11.60;2.53;;;22.20;99.70;;;;;;4973102;28;20055;-81
2022/07/14 15:58:20;;;;;;;10.30;1.70;;;22.30;99.90;;;;;;4961860;28;20577;-80
2022/07/14 16:01:06;;;;;;;8.45;1.70;;;22.40;99.20;;;;;;4981972;28;20055;-78
2022/07/14 16:03:54;;;;;;;11.27;2.10;;;22.50;98.40;;;;;;4981331;28;20491;-84
2022/07/14 16:06:40;;;;;;;9.65;2.00;;;22.40;97.40;;;;;;4962248;28;20051;-79
2022/07/14 16:09:26;;;;;;;8.88;1.50;;;22.30;97.70;;;;;;4976846;28;20050;-84
2022/07/14 16:12:12;;;;;;;6.30;1.50;;;22.30;97.40;;;;;;4963076;28;20051;-88
2022/07/14 16:14:58;;;;;;;10.82;2.13;;;22.10;97.80;;;;;;4981936;28;20050;-84
2022/07/14 16:17:45;;;;;;;8.55;1.65;;;22.10;97.90;;;;;;4981825;28;20047;-90
2022/07/14 16:20:31;;;;;;;10.57;2.15;;;21.70;98.20;;;;;;4962338;28;20054;-86
2022/07/14 16:23:17;;;;;;;9.45;1.42;;;21.40;98.20;;;;;;4963428;28;20058;-83
2022/07/14 16:26:04;;;;;;;10.00;1.90;;;21.40;98.70;;;;;;4983382;28;20055;-85
2022/07/14 16:28:52;;;;;;;8.30;2.20;;;21.00;98.50;;;;;;4964666;28;20050;-88
2022/07/14 16:31:39;;;;;;;7.40;1.65;;;21.00;98.50;;;;;;4983216;28;20110;-87
2022/07/14 16:34:25;;;;;;;6.78;1.83;;;20.90;98.50;;;;;;4970786;28;20119;-90
2022/07/14 16:37:12;;;;;;;6.93;1.80;;;20.90;97.80;;;;;;4982461;28;20050;-89
2022/07/14 16:39:58;;;;;;;6.95;1.73;;;20.80;98.00;;;;;;4985585;28;20493;-93
2022/07/14 16:42:44;;;;;;;10.23;1.67;;;20.60;98.20;;;;;;4982772;28;20046;-86
2022/07/14 16:45:30;;;;;;;8.48;1.50;;;20.40;98.80;;;;;;4974991;28;20073;-92
2022/07/14 16:48:17;;;;;;;10.30;1.40;;;20.40;99.30;;;;;;4999601;28;20058;-84
2022/07/14 16:51:04;;;;;;;8.93;1.73;;;20.40;99.60;;;;;;4987424;28;20062;-78
2022/07/14 16:53:54;;;;;;;11.23;1.70;;;20.30;99.80;;;;;;4968373;28;20544;-82
2022/07/14 16:56:40;;;;;;;5.05;1.42;;;20.00;99.90;;;;;;4965542;28;20132;-87
2022/07/14 16:59:27;;;;;;;8.43;2.03;;;20.00;99.90;;;;;;4977236;28;20039;-83
2022/07/14 17:02:14;;;;;;;8.18;1.58;;;20.00;99.90;;;;;;4964423;28;20415;-81
2022/07/14 17:06:18;;;;;;;7.35;1.23;;;19.80;99.90;;;;;;4964098;28;20097;-91
2022/07/14 17:08:06;;;;;;;11.95;1.90;;;19.90;99.90;;;;;;4988961;28;20116;-86
2022/07/14 17:10:53;;;;;;;8.40;1.70;;;19.80;99.90;;;;;;5001425;28;20057;-81
2022/07/14 17:13:40;;;;;;;12.80;2.47;;;19.90;99.90;;;;;;4997052;28;20108;-88
2022/07/14 17:16:27;;;;;;;9.02;1.63;;;20.00;99.90;;;;;;4981495;28;20053;-83
2022/07/14 17:19:16;;;;;;;8.95;2.13;;;19.90;99.90;;;;;;4981771;28;20066;-85
2022/07/14 17:22:02;;;;;;;6.10;1.35;;;19.80;99.90;;;;;;4980200;28;20086;-88
2022/07/14 17:24:49;;;;;;;13.02;2.28;;;19.90;99.90;;;;;;4981028;28;20104;-86
2022/07/14 17:27:38;;;;;;;10.32;2.00;;;19.90;99.90;;;;;;4996334;28;20054;-83
2022/07/14 17:30:24;;;;;;;7.88;1.83;;;19.90;99.90;;;;;;4994877;28;20046;-84
2022/07/14 17:33:11;;;;;;;7.88;1.25;;;19.60;99.90;;;;;;4995064;28;20097;-82
2022/07/14 17:35:58;;;;;;;9.63;1.60;;;19.80;99.90;;;;;;4995502;28;20057;-85
2022/07/14 17:38:44;;;;;;;8.73;1.83;;;19.60;99.90;;;;;;4977652;28;20502;-82
2022/07/14 17:41:30;;;;;;;11.48;2.33;;;19.30;99.90;;;;;;4979197;28;20568;-83
2022/07/14 17:44:17;;;;;;;9.13;1.92;;;19.40;99.90;;;;;;5002449;28;20079;-85
2022/07/14 17:47:03;;;;;;;9.38;1.27;;;19.20;99.90;;;;;;4984788;28;20068;-76
2022/07/14 17:49:49;;;;;;;12.32;1.50;;;18.80;99.90;;;;;;5000249;28;20085;-83
2022/07/14 17:52:35;;;;;;;6.70;1.35;;;18.70;99.90;;;;;;4978890;28;20049;-81
2022/07/14 17:55:22;;;;;;;7.63;1.60;;;18.60;99.90;;;;;;4994798;28;20053;-77
2022/07/14 17:58:10;;;;;;;11.50;1.67;;;18.50;99.90;;;;;;4993089;28;20061;-77
2022/07/14 18:00:57;;;;;;;9.68;1.48;;;18.50;99.90;;;;;;4993691;28;20069;-86
2022/07/14 18:03:44;;;;;;;10.52;1.65;;;18.50;99.90;;;;;;4975591;28;20055;-83
2022/07/14 18:06:30;;;;;;;6.60;1.60;;;18.60;99.90;;;;;;4994637;28;20049;-84
2022/07/14 18:09:17;;;;;;;6.03;1.38;;;18.70;99.90;;;;;;4995313;28;20189;-82
2022/07/14 18:12:04;;;;;;;5.95;1.50;;;18.80;99.90;;;;;;4976291;28;20490;-83
2022/07/14 18:14:52;;;;;;;6.55;1.30;;;18.90;99.90;;;;;;5007051;28;20502;-83
2022/07/14 18:17:39;;;;;;;6.20;1.25;;;18.90;99.90;;;;;;4988579;28;20062;-81
2022/07/14 18:20:25;;;;;;;4.80;1.00;;;18.70;99.90;;;;;;5001117;28;20046;-83
2022/07/14 18:23:12;;;;;;;10.13;1.70;;;18.70;99.90;;;;;;4975726;28;20061;-86
2022/07/14 18:25:58;;;;;;;6.88;1.10;;;18.50;99.90;;;;;;5012691;28;20145;-85
2022/07/14 18:28:44;;;;;;;7.72;1.40;;;18.30;99.90;;;;;;4995618;28;20042;-85
2022/07/14 18:31:31;;;;;;;7.47;1.35;;;18.10;99.90;;;;;;4979062;28;20496;-89
2022/07/14 18:34:18;;;;;;;6.13;1.65;;;18.00;99.90;;;;;;5008090;28;20093;-82
2022/07/14 18:37:06;;;;;;;7.10;1.30;;;17.90;99.90;;;;;;5003644;28;20537;-82
2022/07/14 18:39:52;;;;;;;10.25;1.80;;;17.90;99.90;;;;;;4981131;28;20050;-83
2022/07/14 18:42:39;;;;;;;9.90;2.22;;;17.80;99.90;;;;;;4991419;28;20132;-85
2022/07/14 18:48:30;;;;;;;6.38;1.20;;;17.70;99.90;;;;;;4996298;28;20093;-84
2022/07/14 18:51:22;;;;;;;6.90;1.58;;;17.60;99.90;;;;;;4982462;28;20046;-87
2022/07/14 18:54:10;;;;;;;15.57;1.73;;;17.50;99.90;;;;;;4981810;28;20069;-87
2022/07/14 18:56:57;;;;;;;7.75;1.10;;;17.50;99.90;;;;;;4978321;28;20054;-88
2022/07/14 18:59:43;;;;;;;6.95;1.35;;;17.40;99.90;;;;;;4965846;28;20138;-84
2022/07/14 19:02:29;;;;;;;7.82;1.27;;;17.40;99.90;;;;;;4996273;28;20078;-90
2022/07/14 19:05:15;;;;;;;7.57;1.30;;;17.50;99.90;;;;;;4996146;28;20133;-89
2022/07/14 19:08:02;;;;;;;6.15;1.23;;;17.40;99.90;;;;;;4975854;28;20546;-85
2022/07/14 19:10:49;;;;;;;7.00;1.63;;;17.40;99.90;;;;;;4982188;28;20511;-82
2022/07/14 19:13:38;;;;;;;7.32;1.63;;;17.30;99.90;;;;;;4984272;28;20050;-83
2022/07/14 19:16:24;;;;;;;4.72;1.83;;;17.30;99.90;;;;;;4982148;28;20514;-85
2022/07/14 19:19:11;;;;;;;7.20;1.30;;;17.20;99.90;;;;;;4983438;28;20622;-84
2022/07/14 19:21:57;;;;;;;7.68;1.38;;;17.20;99.90;;;;;;4950393;28;20080;-89
2022/07/14 19:24:44;;;;;;;11.30;1.40;;;17.20;99.90;;;;;;4967503;28;20054;-84
2022/07/14 19:27:31;;;;;;;8.48;1.70;;;17.10;99.90;;;;;;4974002;28;20057;-82
2022/07/14 19:30:17;;;;;;;7.93;1.42;;;17.10;99.90;;;;;;4974245;28;20170;-83
2022/07/14 19:33:04;;;;;;;10.75;1.80;;;17.00;99.90;;;;;;4976239;28;20388;-93
2022/07/14 19:35:50;;;;;;;9.80;1.50;;;17.00;99.90;;;;;;4976539;28;20054;-84
2022/07/14 19:38:37;;;;;;;6.40;1.42;;;16.90;99.90;;;;;;4965615;28;20133;-87
2022/07/14 19:41:23;;;;;;;6.53;1.30;;;16.80;99.90;;;;;;4981637;28;20049;-84
2022/07/14 19:44:09;;;;;;;8.35;1.77;;;16.80;99.90;;;;;;4973616;28;20068;-85
2022/07/14 19:46:56;;;;;;;13.52;1.65;;;16.70;99.90;;;;;;4972735;28;20459;-89
2022/07/14 19:49:45;;;;;;;11.07;1.67;;;16.70;99.90;;;;;;4970325;28;20159;-88
2022/07/14 19:52:31;;;;;;;6.88;1.50;;;16.60;99.90;;;;;;4961453;28;20046;-83
2022/07/14 19:55:20;;;;;;;7.35;1.30;;;16.50;99.90;;;;;;4971581;28;20105;-83
2022/07/14 19:58:07;;;;;;;9.20;1.25;;;16.50;99.90;;;;;;4967097;28;20491;-86
2022/07/14 20:00:53;;;;;;;9.80;1.55;;;16.40;99.90;;;;;;4969899;28;20174;-83
2022/07/14 20:03:39;;;;;;;8.98;1.13;;;16.40;99.90;;;;;;4978324;28;20438;-86
2022/07/14 20:06:25;;;;;;;11.82;1.70;;;16.30;99.90;;;;;;4974622;28;20058;-88
2022/07/14 20:09:11;;;;;;;14.88;2.22;;;16.30;99.90;;;;;;4992256;28;20365;-88
2022/07/14 20:11:58;;;;;;;7.40;1.40;;;16.20;99.90;;;;;;4990653;28;20054;-83
2022/07/14 20:14:44;;;;;;;9.10;1.40;;;16.20;99.90;;;;;;4973002;28;20499;-82
2022/07/14 20:17:30;;;;;;;6.70;2.20;;;16.20;99.90;;;;;;4990755;28;20484;-85
2022/07/14 20:20:16;;;;;;;10.85;1.80;;;16.10;99.90;;;;;;4971913;28;20070;-84
2022/07/14 20:23:03;;;;;;;10.02;1.48;;;16.10;99.90;;;;;;5006379;28;20161;-84
2022/07/14 20:25:49;;;;;;;11.13;2.72;;;16.00;99.90;;;;;;5010925;28;20082;-82
2022/07/14 20:34:47;;;;;;;12.77;2.60;;;16.00;99.90;;;;;;5004862;28;20083;-87
2022/07/14 20:37:34;;;;;;;10.75;2.10;;;15.90;99.90;;;;;;4991921;28;20050;-85
2022/07/14 20:40:21;;;;;;;10.65;1.52;;;15.80;99.90;;;;;;4977178;28;20042;-86
2022/07/14 20:43:07;;;;;;;8.88;1.70;;;15.80;99.90;;;;;;4976796;28;20069;-86
2022/07/14 20:45:53;;;;;;;8.90;1.58;;;15.70;99.90;;;;;;4995026;28;20047;-86
2022/07/14 20:48:42;;;;;;;7.63;1.23;;;15.70;99.90;;;;;;5021323;28;20042;-86
2022/07/14 20:51:29;;;;;;;5.65;1.00;;;15.60;99.90;;;;;;5014631;28;20100;-86
2022/07/14 20:54:16;;;;;;;13.68;2.00;;;15.60;99.90;;;;;;4995244;28;20047;-90
2022/07/14 20:57:03;;;;;;;6.90;1.80;;;15.60;99.90;;;;;;4995672;28;20053;-87
2022/07/14 20:59:49;;;;;;;13.68;2.78;;;15.60;99.90;;;;;;5010306;28;20038;-86
2022/07/14 21:02:35;;;;;;;10.88;1.50;;;15.50;99.90;;;;;;4998833;28;20038;-87
2022/07/14 21:05:23;;;;;;;11.38;1.90;;;15.60;99.90;;;;;;4995402;28;20112;-86
2022/07/14 21:08:09;;;;;;;7.18;1.42;;;15.50;99.90;;;;;;4996404;28;20093;-86
2022/07/14 21:10:56;;;;;;;8.23;1.67;;;15.50;99.90;;;;;;4994051;28;20042;-84
2022/07/14 21:13:42;;;;;;;11.93;2.03;;;15.50;99.90;;;;;;4985100;28;20046;-86
2022/07/14 21:16:30;;;;;;;7.57;2.35;;;15.50;99.90;;;;;;4982699;28;20047;-86
2022/07/14 21:19:16;;;;;;;6.20;1.55;;;15.40;99.90;;;;;;4977145;28;20062;-83
2022/07/14 21:22:02;;;;;;;12.80;2.10;;;15.40;99.90;;;;;;4990781;28;20047;-83
2022/07/14 21:24:48;;;;;;;10.90;1.92;;;15.40;99.90;;;;;;4975290;28;20462;-86
2022/07/14 21:27:34;;;;;;;12.15;2.97;;;15.40;99.90;;;;;;5003451;28;20082;-86
2022/07/14 21:30:21;;;;;;;9.75;2.55;;;15.40;99.90;;;;;;5010055;28;20051;-86
2022/07/14 21:33:07;;;;;;;10.82;2.42;;;15.30;99.90;;;;;;4980002;28;20050;-85
2022/07/14 21:35:53;;;;;;;8.10;2.05;;;15.30;99.90;;;;;;4992438;28;20418;-90
2022/07/14 21:38:39;;;;;;;8.68;1.55;;;15.30;99.90;;;;;;5004610;28;20054;-86
2022/07/14 21:41:25;;;;;;;6.57;1.95;;;15.30;99.90;;;;;;4980194;28;20073;-87
2022/07/14 21:44:11;;;;;;;6.50;1.73;;;15.30;99.90;;;;;;4981790;28;20089;-90
2022/07/14 21:46:58;;;;;;;18.08;2.65;;;15.30;99.90;;;;;;4999040;28;20116;-90
2022/07/14 21:49:44;;;;;;;11.05;2.13;;;15.30;99.90;;;;;;4995296;28;20054;-85
2022/07/14 21:52:30;;;;;;;8.98;1.85;;;15.40;99.90;;;;;;4979958;28;20042;-86
2022/07/14 21:55:19;;;;;;;8.40;1.50;;;15.40;99.90;;;;;;4994515;28;20081;-89
2022/07/14 21:58:07;;;;;;;7.25;1.58;;;15.40;99.90;;;;;;4999350;28;20124;-86
2022/07/14 22:00:54;;;;;;;7.85;2.40;;;15.40;99.90;;;;;;4975468;28;20117;-87
2022/07/14 22:03:40;;;;;;;13.73;2.65;;;15.40;99.90;;;;;;4979253;28;20137;-87
2022/07/14 22:06:26;;;;;;;10.13;1.75;;;15.40;99.90;;;;;;4994174;28;20070;-87
2022/07/14 22:09:12;;;;;;;8.73;1.50;;;15.40;99.90;;;;;;4994773;28;20090;-85
2022/07/14 22:11:58;;;;;;;14.13;3.00;;;15.50;99.90;;;;;;4976912;28;20042;-87
2022/07/14 22:14:45;;;;;;;6.78;0.98;;;15.50;99.90;;;;;;4981781;28;20058;-87
2022/07/14 22:17:31;;;;;;;9.85;1.35;;;15.60;99.90;;;;;;5002801;28;20085;-89
2022/07/14 22:20:19;;;;;;;8.65;1.60;;;15.60;99.90;;;;;;5009935;28;20042;-86
2022/07/14 22:23:05;;;;;;;8.90;1.70;;;15.60;99.90;;;;;;5001417;28;20061;-87
2022/07/14 22:25:51;;;;;;;8.02;1.90;;;15.60;99.90;;;;;;4977806;28;20066;-86
2022/07/14 22:28:37;;;;;;;12.95;2.58;;;15.70;99.90;;;;;;4994532;28;20057;-86
2022/07/14 22:31:23;;;;;;;12.98;2.25;;;15.70;99.90;;;;;;4993626;28;20093;-85
2022/07/14 22:34:10;;;;;;;9.73;2.00;;;15.80;99.90;;;;;;4976568;28;20112;-85
2022/07/14 22:36:56;;;;;;;8.02;1.60;;;15.70;99.90;;;;;;4993423;28;20121;-85
2022/07/14 22:39:43;;;;;;;7.63;1.52;;;15.60;99.90;;;;;;4981250;28;20108;-85
2022/07/14 22:42:30;;;;;;;11.05;1.42;;;15.60;99.90;;;;;;5008992;28;20054;-87
2022/07/14 22:45:17;;;;;;;7.72;1.40;;;15.50;99.90;;;;;;4994909;28;20137;-89
2022/07/14 22:48:04;;;;;;;3.70;1.00;;;15.40;99.90;;;;;;4979955;28;20054;-88
2022/07/14 22:50:50;;;;;;;9.27;1.33;;;15.40;99.90;;;;;;4963676;28;20051;-87
2022/07/14 22:53:36;;;;;;;7.78;1.30;;;15.40;99.90;;;;;;4979576;28;20050;-89
2022/07/14 22:56:25;;;;;;;10.85;1.67;;;15.40;99.90;;;;;;4993878;28;20057;-88
2022/07/14 22:59:18;;;;;;;4.35;1.30;;;15.40;99.90;;;;;;4994927;28;20129;-87